createdAt,value
2019-05-19T00:00:45.109Z,20.82
2019-05-19T00:03:13.840Z,22.80
2019-05-19T00:05:42.507Z,20.35
2019-05-19T00:08:11.325Z,21.87
2019-05-19T00:10:40.045Z,21.40
2019-05-19T00:13:08.691Z,23.12
2019-05-19T00:15:37.498Z,21.33
2019-05-19T00:18:06.216Z,22.13
2019-05-19T00:20:34.987Z,22.13
2019-05-19T00:23:06.541Z,22.13
2019-05-19T00:25:35.302Z,22.10
2019-05-19T00:28:03.975Z,20.80
2019-05-19T00:30:32.696Z,21.12
2019-05-19T00:33:01.390Z,20.82
2019-05-19T00:35:30.049Z,21.85
2019-05-19T00:37:58.630Z,20.60
2019-05-19T00:40:27.281Z,20.70
2019-05-19T00:42:55.962Z,20.45
2019-05-19T00:45:24.643Z,21.05
2019-05-19T00:47:53.270Z,22.50
2019-05-19T00:50:22.138Z,22.55
2019-05-19T00:52:50.897Z,18.98
2019-05-19T00:55:20.155Z,21.73
2019-05-19T00:57:49.688Z,21.77
2019-05-19T01:00:19.978Z,22.40
2019-05-19T01:02:48.563Z,24.12
2019-05-19T01:05:20.583Z,23.13
2019-05-19T01:07:47.768Z,23.15
2019-05-19T01:10:17.517Z,21.50
2019-05-19T01:12:46.101Z,21.17
2019-05-19T01:15:15.485Z,19.23
2019-05-19T01:17:44.181Z,18.80
2019-05-19T01:20:12.989Z,20.27
2019-05-19T01:22:41.818Z,22.87
2019-05-19T01:25:10.960Z,22.82
2019-05-19T01:27:39.556Z,26.77
2019-05-19T01:30:09.853Z,27.23
2019-05-19T01:32:38.485Z,27.27
2019-05-19T01:35:07.631Z,28.45
2019-05-19T01:37:36.933Z,28.90
2019-05-19T01:40:08.906Z,22.45
2019-05-19T01:42:37.598Z,23.20
2019-05-19T01:45:08.522Z,24.27
2019-05-19T01:47:37.244Z,25.25
2019-05-19T01:50:17.670Z,24.25
2019-05-19T01:52:39.034Z,32.08
2019-05-19T01:55:08.654Z,23.75
2019-05-19T01:57:37.378Z,24.55
2019-05-19T02:00:10.990Z,25.02
2019-05-19T02:02:39.755Z,30.30
2019-05-19T02:05:09.531Z,27.47
2019-05-19T02:07:38.235Z,21.90
2019-05-19T02:10:09.320Z,23.75
2019-05-19T02:12:38.087Z,23.40
2019-05-19T02:15:08.326Z,22.37
2019-05-19T02:17:37.389Z,22.05
2019-05-19T02:20:09.329Z,21.87
2019-05-19T02:22:38.037Z,22.37
2019-05-19T02:25:07.619Z,19.80
2019-05-19T02:27:36.349Z,19.87
2019-05-19T02:30:09.640Z,20.85
2019-05-19T02:32:38.311Z,20.12
2019-05-19T02:35:07.651Z,19.02
2019-05-19T02:37:36.340Z,17.80
2019-05-19T02:40:08.540Z,18.60
2019-05-19T02:42:39.731Z,19.77
2019-05-19T02:45:08.742Z,20.43
2019-05-19T02:47:40.083Z,21.50
2019-05-19T02:50:10.042Z,19.10
2019-05-19T02:52:40.875Z,20.02
2019-05-19T02:55:09.925Z,19.80
2019-05-19T02:57:39.225Z,19.37
2019-05-19T03:00:09.608Z,18.70
2019-05-19T03:02:38.399Z,18.93
2019-05-19T03:05:07.297Z,20.17
2019-05-19T03:07:35.959Z,19.27
2019-05-19T03:10:07.656Z,18.67
2019-05-19T03:12:36.442Z,19.63
2019-05-19T03:15:06.351Z,18.62
2019-05-19T03:17:35.100Z,18.48
2019-05-19T03:20:04.970Z,18.32
2019-05-19T03:22:33.687Z,17.95
2019-05-19T03:25:02.338Z,18.32
2019-05-19T03:27:31.034Z,18.10
2019-05-19T03:30:01.272Z,17.48
2019-05-19T03:32:31.523Z,17.90
2019-05-19T03:35:00.109Z,17.67
2019-05-19T03:37:28.681Z,18.25
2019-05-19T03:39:57.963Z,18.37
2019-05-19T03:42:26.679Z,17.42
2019-05-19T03:44:55.240Z,18.90
2019-05-19T03:47:23.801Z,18.02
2019-05-19T03:49:52.358Z,18.57
2019-05-19T03:52:22.551Z,19.37
2019-05-19T03:54:51.209Z,19.30
2019-05-19T03:57:19.845Z,18.85
2019-05-19T03:59:49.938Z,18.23
2019-05-19T04:02:18.529Z,18.52
2019-05-19T04:04:47.234Z,19.40
2019-05-19T04:07:15.926Z,19.42
2019-05-19T04:09:44.437Z,18.45
2019-05-19T04:12:13.062Z,19.00
2019-05-19T04:14:41.736Z,19.15
2019-05-19T04:17:10.292Z,19.70
2019-05-19T04:19:38.990Z,18.80
2019-05-19T04:22:07.596Z,17.60
2019-05-19T04:24:40.188Z,17.90
2019-05-19T04:27:08.878Z,16.82
2019-05-19T04:29:39.608Z,17.10
2019-05-19T04:32:08.424Z,16.87
2019-05-19T04:34:37.017Z,18.80
2019-05-19T04:37:05.656Z,18.80
2019-05-19T04:39:36.627Z,19.98
2019-05-19T04:42:05.320Z,22.70
2019-05-19T04:44:33.968Z,22.82
2019-05-19T04:47:02.546Z,22.17
2019-05-19T04:49:31.183Z,22.90
2019-05-19T04:52:06.607Z,22.77
2019-05-19T04:54:30.260Z,23.55
2019-05-19T04:56:58.987Z,21.95
2019-05-19T04:59:27.695Z,25.12
2019-05-19T05:01:56.430Z,24.07
2019-05-19T05:04:29.074Z,24.60
2019-05-19T05:06:55.506Z,25.08
2019-05-19T05:09:24.086Z,23.22
2019-05-19T05:11:52.673Z,23.62
2019-05-19T05:14:21.319Z,23.30
2019-05-19T05:16:49.972Z,21.60
2019-05-19T05:19:18.586Z,22.82
2019-05-19T05:21:47.098Z,22.60
2019-05-19T05:24:20.372Z,22.52
2019-05-19T05:26:50.709Z,22.23
2019-05-19T05:29:19.333Z,22.17
2019-05-19T05:31:47.899Z,22.45
2019-05-19T05:34:16.545Z,22.77
2019-05-19T05:36:45.195Z,22.63
2019-05-19T05:39:13.813Z,21.73
2019-05-19T05:41:42.407Z,21.52
2019-05-19T05:44:11.019Z,21.37
2019-05-19T05:46:39.675Z,20.72
2019-05-19T05:49:08.332Z,21.27
2019-05-19T05:51:37.021Z,21.52
2019-05-19T05:54:05.817Z,21.60
2019-05-19T05:56:34.416Z,20.43
2019-05-19T05:59:04.547Z,20.40
2019-05-19T06:01:33.076Z,20.67
2019-05-19T06:04:03.439Z,20.10
2019-05-19T06:06:33.654Z,20.27
2019-05-19T06:09:06.730Z,19.82
2019-05-19T06:11:35.370Z,20.12
2019-05-19T06:14:04.171Z,19.65
2019-05-19T06:16:32.839Z,20.43
2019-05-19T06:19:01.432Z,19.30
2019-05-19T06:21:30.330Z,19.87
2019-05-19T06:23:59.013Z,19.67
2019-05-19T06:26:27.585Z,20.25
2019-05-19T06:28:56.167Z,19.17
2019-05-19T06:31:24.824Z,19.05
2019-05-19T06:33:53.457Z,19.32
2019-05-19T06:36:22.017Z,19.85
2019-05-19T06:38:50.684Z,18.42
2019-05-19T06:41:19.322Z,18.57
2019-05-19T06:43:47.981Z,18.07
2019-05-19T06:46:16.603Z,18.95
2019-05-19T06:48:45.509Z,18.48
2019-05-19T06:51:14.343Z,18.17
2019-05-19T06:53:42.898Z,17.40
2019-05-19T06:56:11.506Z,16.67
2019-05-19T06:58:41.602Z,13.85
2019-05-19T07:01:10.186Z,15.13
2019-05-19T07:03:38.862Z,15.90
2019-05-19T07:06:07.549Z,16.42
2019-05-19T07:08:36.106Z,14.93
2019-05-19T07:11:06.570Z,15.18
2019-05-19T07:13:35.277Z,14.87
2019-05-19T07:16:03.973Z,13.65
2019-05-19T07:18:32.694Z,15.32
2019-05-19T07:21:01.411Z,14.10
2019-05-19T07:23:30.176Z,13.95
2019-05-19T07:25:58.776Z,13.93
2019-05-19T07:28:27.398Z,13.32
2019-05-19T07:30:56.009Z,13.40
2019-05-19T07:33:24.637Z,13.70
2019-05-19T07:35:53.292Z,13.62
2019-05-19T07:38:21.998Z,14.18
2019-05-19T07:40:50.827Z,14.53
2019-05-19T07:43:19.530Z,14.60
2019-05-19T07:45:48.081Z,13.20
2019-05-19T07:48:16.707Z,13.88
2019-05-19T07:50:45.398Z,15.18
2019-05-19T07:53:14.136Z,13.75
2019-05-19T07:55:42.866Z,13.93
2019-05-19T07:58:11.403Z,14.68
2019-05-19T08:00:40.146Z,15.60
2019-05-19T08:03:09.122Z,15.25
2019-05-19T08:05:37.782Z,14.83
2019-05-19T08:08:06.382Z,13.35
2019-05-19T08:10:35.050Z,13.98
2019-05-19T08:13:03.714Z,13.03
2019-05-19T08:15:33.851Z,13.13
2019-05-19T08:18:02.441Z,13.62
2019-05-19T08:20:31.023Z,12.53
2019-05-19T08:23:01.184Z,14.03
2019-05-19T08:25:30.101Z,13.45
2019-05-19T08:28:07.161Z,13.80
2019-05-19T08:30:29.084Z,13.08
2019-05-19T08:32:57.793Z,12.78
2019-05-19T08:35:28.681Z,12.07
2019-05-19T08:37:57.348Z,12.10
2019-05-19T08:40:26.041Z,12.28
2019-05-19T08:42:54.763Z,12.60
2019-05-19T08:45:23.466Z,12.30
2019-05-19T08:47:52.211Z,12.07
2019-05-19T08:50:20.906Z,11.70
2019-05-19T08:52:49.610Z,11.35
2019-05-19T08:55:18.289Z,10.53
2019-05-19T08:57:47.002Z,10.72
2019-05-19T09:00:15.950Z,11.53
2019-05-19T09:02:44.502Z,10.43
2019-05-19T09:05:13.313Z,9.30
2019-05-19T09:07:41.940Z,8.80
2019-05-19T09:10:10.737Z,9.35
2019-05-19T09:12:39.308Z,10.65
2019-05-19T09:15:08.407Z,9.50
2019-05-19T09:17:37.093Z,10.28
2019-05-19T09:20:06.313Z,9.35
2019-05-19T09:22:34.894Z,8.70
2019-05-19T09:25:05.471Z,9.68
2019-05-19T09:27:34.154Z,10.60
2019-05-19T09:30:02.784Z,9.58
2019-05-19T09:32:31.490Z,9.48
2019-05-19T09:35:00.212Z,10.20
2019-05-19T09:37:28.901Z,9.90
2019-05-19T09:39:57.635Z,9.73
2019-05-19T09:42:26.151Z,9.27
2019-05-19T09:44:54.850Z,9.05
2019-05-19T09:47:23.561Z,9.28
2019-05-19T09:49:53.131Z,9.53
2019-05-19T09:52:21.770Z,8.75
2019-05-19T09:54:50.396Z,9.25
2019-05-19T09:57:19.109Z,9.05
2019-05-19T09:59:47.787Z,8.83
2019-05-19T10:02:16.425Z,8.85
2019-05-19T10:04:45.147Z,9.58
2019-05-19T10:07:13.844Z,10.00
2019-05-19T10:09:57.900Z,9.45
2019-05-19T10:12:26.813Z,8.68
2019-05-19T10:14:55.586Z,9.30
2019-05-19T10:17:24.307Z,8.97
2019-05-19T10:19:53.024Z,8.78
2019-05-19T10:22:22.250Z,8.33
2019-05-19T10:25:10.049Z,7.75
2019-05-19T10:27:22.866Z,7.75
2019-05-19T10:29:51.487Z,8.23
2019-05-19T10:32:20.248Z,8.58
2019-05-19T10:34:48.967Z,7.50
2019-05-19T10:37:17.654Z,7.78
2019-05-19T10:39:46.380Z,7.67
2019-05-19T10:42:15.129Z,7.70
2019-05-19T10:44:44.221Z,9.25
2019-05-19T10:47:12.946Z,8.78
2019-05-19T10:49:43.092Z,10.13
2019-05-19T10:52:11.886Z,9.63
2019-05-19T10:54:40.463Z,10.48
2019-05-19T10:57:09.173Z,11.43
2019-05-19T10:59:37.881Z,11.63
2019-05-19T11:02:06.579Z,11.27
2019-05-19T11:04:35.298Z,10.50
2019-05-19T11:07:04.597Z,10.40
2019-05-19T11:09:33.150Z,10.37
2019-05-19T11:12:01.794Z,10.78
2019-05-19T11:14:30.471Z,11.63
2019-05-19T11:16:59.042Z,11.57
2019-05-19T11:19:27.698Z,10.75
2019-05-19T11:21:56.338Z,10.50
2019-05-19T11:24:25.012Z,10.78
2019-05-19T11:26:54.554Z,9.65
2019-05-19T11:29:23.216Z,9.97
2019-05-19T11:31:51.887Z,10.15
2019-05-19T11:34:20.453Z,9.40
2019-05-19T11:36:49.022Z,9.73
2019-05-19T11:39:17.739Z,10.30
2019-05-19T11:41:46.474Z,9.93
2019-05-19T11:44:15.141Z,9.10
2019-05-19T11:46:48.262Z,9.13
2019-05-19T11:49:16.896Z,10.38
2019-05-19T11:51:46.401Z,10.58
2019-05-19T11:54:14.999Z,9.13
2019-05-19T11:56:43.647Z,9.95
2019-05-19T11:59:12.229Z,9.10
2019-05-19T12:01:42.466Z,10.32
2019-05-19T12:04:11.092Z,9.03
2019-05-19T12:06:42.479Z,10.13
2019-05-19T12:09:11.066Z,9.35
2019-05-19T12:11:39.629Z,9.08
2019-05-19T12:14:09.942Z,8.80
2019-05-19T12:16:38.642Z,9.23
2019-05-19T12:19:07.249Z,8.50
2019-05-19T12:21:38.840Z,9.33
2019-05-19T12:24:07.466Z,9.93
2019-05-19T12:26:36.139Z,9.43
2019-05-19T12:29:04.812Z,9.65
2019-05-19T12:31:33.388Z,8.88
2019-05-19T12:34:01.945Z,9.45
2019-05-19T12:36:31.176Z,10.23
2019-05-19T12:38:59.729Z,10.03
2019-05-19T12:41:28.431Z,10.28
2019-05-19T12:43:56.981Z,11.73
2019-05-19T12:46:25.504Z,10.25
2019-05-19T12:48:55.649Z,12.10
2019-05-19T12:51:26.795Z,11.60
2019-05-19T12:53:54.520Z,11.68
2019-05-19T12:56:37.166Z,11.85
2019-05-19T12:58:54.195Z,11.05
2019-05-19T13:01:22.874Z,10.58
2019-05-19T13:03:51.592Z,10.72
2019-05-19T13:06:20.178Z,9.05
2019-05-19T13:08:48.822Z,10.13
2019-05-19T13:11:17.558Z,10.15
2019-05-19T13:13:46.090Z,9.88
2019-05-19T13:16:14.636Z,9.58
2019-05-19T13:18:43.275Z,9.18
2019-05-19T13:21:11.947Z,8.73
2019-05-19T13:23:40.575Z,8.50
2019-05-19T13:26:09.202Z,8.17
2019-05-19T13:28:37.846Z,8.13
2019-05-19T13:31:06.392Z,7.30
2019-05-19T13:33:35.126Z,7.20
2019-05-19T13:36:03.730Z,7.37
2019-05-19T13:38:33.101Z,7.50
2019-05-19T13:41:01.690Z,7.28
2019-05-19T13:43:30.343Z,6.77
2019-05-19T13:45:59.037Z,7.10
2019-05-19T13:48:27.788Z,7.00
2019-05-19T13:50:56.433Z,6.70
2019-05-19T13:53:25.186Z,6.33
2019-05-19T13:58:18.954Z,6.55
2019-05-19T14:00:47.652Z,6.12
2019-05-19T14:03:16.294Z,6.30
2019-05-19T14:05:45.074Z,6.30
2019-05-19T14:08:13.660Z,6.37
2019-05-19T14:10:42.374Z,6.17
2019-05-19T14:13:11.018Z,6.54
2019-05-19T14:15:40.819Z,6.67
2019-05-19T14:18:10.126Z,6.70
2019-05-19T14:20:38.687Z,6.40
2019-05-19T14:23:07.299Z,6.57
2019-05-19T14:25:35.927Z,6.45
2019-05-19T14:28:04.540Z,6.42
2019-05-19T14:30:33.181Z,6.63
2019-05-19T14:33:01.883Z,6.55
2019-05-19T14:35:30.533Z,6.47
2019-05-19T14:37:59.130Z,6.30
2019-05-19T14:40:27.731Z,6.40
2019-05-19T14:42:57.922Z,6.62
2019-05-19T14:45:28.104Z,6.20
2019-05-19T14:47:56.865Z,6.83
2019-05-19T14:50:25.541Z,6.00
2019-05-19T14:52:54.425Z,6.07
2019-05-19T14:55:23.080Z,6.33
2019-05-19T14:57:51.710Z,6.10
2019-05-19T15:00:21.074Z,5.78
2019-05-19T15:02:49.844Z,6.10
2019-05-19T15:05:19.882Z,5.83
2019-05-19T15:07:48.422Z,6.03
2019-05-19T15:10:17.766Z,6.17
2019-05-19T15:12:46.419Z,6.12
2019-05-19T15:15:15.457Z,6.22
2019-05-19T15:17:44.153Z,6.22
2019-05-19T15:20:13.162Z,6.17
2019-05-19T15:22:44.341Z,5.87
2019-05-19T15:25:13.279Z,5.87
2019-05-19T15:27:41.955Z,5.72
2019-05-19T15:30:13.628Z,6.25
2019-05-19T15:33:02.220Z,6.47
2019-05-19T15:35:31.043Z,6.66
2019-05-19T15:37:59.783Z,6.92
2019-05-19T15:40:29.309Z,6.92
2019-05-19T15:42:57.865Z,6.92
2019-05-19T15:45:26.447Z,6.97
2019-05-19T15:47:55.185Z,6.35
2019-05-19T15:50:23.817Z,6.65
2019-05-19T15:52:55.000Z,6.20
2019-05-19T15:55:23.671Z,6.53
2019-05-19T15:57:52.152Z,6.20
2019-05-19T16:00:22.767Z,5.90
2019-05-19T16:02:52.225Z,5.78
2019-05-19T16:05:20.842Z,6.12
2019-05-19T16:07:49.838Z,5.67
2019-05-19T16:10:18.534Z,6.25
2019-05-19T16:12:47.114Z,5.97
2019-05-19T16:15:16.027Z,5.80
2019-05-19T16:17:44.649Z,5.97
2019-05-19T16:20:15.529Z,5.45
2019-05-19T16:22:44.097Z,5.53
2019-05-19T16:25:13.386Z,5.52
2019-05-19T16:27:42.054Z,6.00
2019-05-19T16:30:11.373Z,5.92
2019-05-19T16:32:40.060Z,5.80
2019-05-19T16:35:09.082Z,5.80
2019-05-19T16:37:37.928Z,5.40
2019-05-19T16:40:07.334Z,4.85
2019-05-19T16:42:35.958Z,5.82
2019-05-19T16:45:07.195Z,5.70
2019-05-19T16:47:36.312Z,5.30
2019-05-19T16:50:06.742Z,5.85
2019-05-19T16:52:35.283Z,5.95
2019-05-19T16:55:22.652Z,6.20
2019-05-19T16:57:51.346Z,5.60
2019-05-19T17:00:20.647Z,5.78
2019-05-19T17:02:49.408Z,5.58
2019-05-19T17:05:18.179Z,5.60
2019-05-19T17:07:46.761Z,5.28
2019-05-19T17:10:15.526Z,5.55
2019-05-19T17:12:44.263Z,5.40
2019-05-19T17:15:13.092Z,6.30
2019-05-19T17:17:41.694Z,6.15
2019-05-19T17:20:10.544Z,5.40
2019-05-19T17:22:39.221Z,6.03
2019-05-19T17:25:07.906Z,6.80
2019-05-19T17:27:36.639Z,6.70
2019-05-19T17:30:07.942Z,5.60
2019-05-19T17:32:36.450Z,5.80
2019-05-19T17:35:08.934Z,6.20
2019-05-19T17:37:37.498Z,6.20
2019-05-19T17:40:06.728Z,6.20
2019-05-19T17:42:37.359Z,6.58
2019-05-19T17:45:06.719Z,6.50
2019-05-19T17:47:36.447Z,6.95
2019-05-19T17:50:07.057Z,6.73
2019-05-19T17:52:35.823Z,7.22
2019-05-19T17:55:06.117Z,6.87
2019-05-19T17:57:35.434Z,7.10
2019-05-19T18:00:05.808Z,6.60
2019-05-19T18:02:34.493Z,8.00
2019-05-19T18:05:03.179Z,7.08
2019-05-19T18:07:31.760Z,7.05
2019-05-19T18:10:06.028Z,7.67
2019-05-19T18:12:34.728Z,6.62
2019-05-19T18:15:04.220Z,7.03
2019-05-19T18:17:32.930Z,7.47
2019-05-19T18:20:01.622Z,7.53
2019-05-19T18:22:30.122Z,7.10
2019-05-19T18:25:00.283Z,7.83
2019-05-19T18:27:28.917Z,8.55
2019-05-19T18:29:57.561Z,8.63
2019-05-19T18:32:26.238Z,7.57
2019-05-19T18:34:54.810Z,8.03
2019-05-19T18:37:27.314Z,7.47
2019-05-19T18:39:55.941Z,8.13
2019-05-19T18:42:24.620Z,8.00
2019-05-19T18:44:54.777Z,8.15
2019-05-19T18:47:23.318Z,7.80
2019-05-19T18:49:52.047Z,8.20
2019-05-19T18:52:22.156Z,7.60
2019-05-19T18:54:50.840Z,8.08
2019-05-19T18:57:19.586Z,8.63
2019-05-19T18:59:48.135Z,9.07
2019-05-19T19:02:17.094Z,9.08
2019-05-19T19:04:45.650Z,8.10
2019-05-19T19:07:15.934Z,8.30
2019-05-19T19:09:44.489Z,8.50
2019-05-19T19:12:16.150Z,8.83
2019-05-19T19:14:45.044Z,8.80
2019-05-19T19:17:13.750Z,8.63
2019-05-19T19:19:43.827Z,9.40
2019-05-19T19:22:14.129Z,9.18
2019-05-19T19:24:42.699Z,10.50
2019-05-19T19:27:13.787Z,9.88
2019-05-19T19:29:45.333Z,9.55
2019-05-19T19:32:14.367Z,9.58
2019-05-19T19:34:42.965Z,10.00
2019-05-19T19:37:11.541Z,9.98
2019-05-19T19:39:40.221Z,10.32
2019-05-19T19:42:08.871Z,10.75
2019-05-19T19:44:37.566Z,10.35
2019-05-19T19:47:06.271Z,10.70
2019-05-19T19:49:34.987Z,11.05
2019-05-19T19:52:03.645Z,11.00
2019-05-19T19:54:32.314Z,11.08
2019-05-19T19:57:01.020Z,11.57
2019-05-19T19:59:29.578Z,11.22
2019-05-19T20:01:58.170Z,11.63
2019-05-19T20:04:29.440Z,10.65
2019-05-19T20:06:58.243Z,11.50
2019-05-19T20:09:26.866Z,11.70
2019-05-19T20:11:56.167Z,11.50
2019-05-19T20:14:25.251Z,11.60
2019-05-19T20:16:54.019Z,11.45
2019-05-19T20:19:22.839Z,12.23
2019-05-19T20:21:55.009Z,11.55
2019-05-19T20:24:23.243Z,11.85
2019-05-19T20:26:51.930Z,11.70
2019-05-19T20:29:20.585Z,11.73
2019-05-19T20:31:49.204Z,12.40
2019-05-19T20:34:17.869Z,12.35
2019-05-19T20:36:46.568Z,11.80
2019-05-19T20:39:15.170Z,12.68
2019-05-19T20:41:43.816Z,12.82
2019-05-19T20:44:12.634Z,12.95
2019-05-19T20:46:41.266Z,12.55
2019-05-19T20:49:09.956Z,12.80
2019-05-19T20:51:38.615Z,12.82
2019-05-19T20:54:07.276Z,12.90
2019-05-19T20:56:36.402Z,13.15
2019-05-19T20:59:05.016Z,13.25
2019-05-19T21:01:33.602Z,14.15
2019-05-19T21:04:02.187Z,13.23
2019-05-19T21:06:30.938Z,28.23
2019-05-19T21:08:59.693Z,14.33
2019-05-19T21:11:31.065Z,15.15
2019-05-19T21:13:59.622Z,12.95
2019-05-19T21:16:28.191Z,15.13
2019-05-19T21:18:56.805Z,14.60
2019-05-19T21:21:25.438Z,14.75
2019-05-19T21:23:54.074Z,14.98
2019-05-19T21:26:22.647Z,14.70
2019-05-19T21:28:51.277Z,14.00
2019-05-19T21:31:19.906Z,14.23
2019-05-19T21:33:48.505Z,14.80
2019-05-19T21:36:18.146Z,14.45
2019-05-19T21:38:46.724Z,15.23
2019-05-19T21:41:15.384Z,14.75
2019-05-19T21:43:44.096Z,14.98
2019-05-19T21:46:12.658Z,14.43
2019-05-19T21:48:41.376Z,13.10
2019-05-19T21:51:10.032Z,14.50
2019-05-19T21:53:38.640Z,13.58
2019-05-19T21:56:07.334Z,14.27
2019-05-19T21:58:36.302Z,14.85
2019-05-19T22:01:05.040Z,13.80
2019-05-19T22:03:33.756Z,13.45
2019-05-19T22:06:02.453Z,12.33
2019-05-19T22:08:30.968Z,12.55
2019-05-19T22:10:59.694Z,12.37
2019-05-19T22:13:29.907Z,12.40
2019-05-19T22:16:12.374Z,12.82
2019-05-19T22:18:28.971Z,13.88
2019-05-19T22:20:58.499Z,13.24
2019-05-19T22:23:27.060Z,13.00
2019-05-19T22:25:55.709Z,12.25
2019-05-19T22:28:24.340Z,13.37
2019-05-19T22:30:53.027Z,13.08
2019-05-19T22:33:21.737Z,13.20
2019-05-19T22:35:50.490Z,12.93
2019-05-19T22:38:19.204Z,12.50
2019-05-19T22:40:47.875Z,12.68
2019-05-19T22:43:16.547Z,12.23
2019-05-19T22:45:45.216Z,14.50
2019-05-19T22:48:15.504Z,13.43
2019-05-19T22:50:44.203Z,12.70
2019-05-19T22:53:12.790Z,13.80
2019-05-19T22:55:41.367Z,13.58
2019-05-19T22:58:10.019Z,13.00
2019-05-19T23:00:38.717Z,13.03
2019-05-19T23:03:07.365Z,13.00
2019-05-19T23:05:35.938Z,12.53
2019-05-19T23:08:04.625Z,13.35
2019-05-19T23:10:33.219Z,13.30
2019-05-19T23:13:01.961Z,13.25
2019-05-19T23:15:30.750Z,13.03
2019-05-19T23:17:59.539Z,13.62
2019-05-19T23:20:28.172Z,12.80
2019-05-19T23:22:57.257Z,14.20
2019-05-19T23:25:25.846Z,13.83
2019-05-19T23:27:54.527Z,14.65
2019-05-19T23:30:23.243Z,13.95
2019-05-19T23:32:53.342Z,14.28
2019-05-19T23:35:21.970Z,14.13
2019-05-19T23:37:50.589Z,14.98
2019-05-19T23:40:19.247Z,15.00
2019-05-19T23:42:47.921Z,15.05
2019-05-19T23:45:17.206Z,14.15
2019-05-19T23:47:45.770Z,15.03
2019-05-19T23:50:18.471Z,14.93
2019-05-19T23:55:15.027Z,14.93
2019-05-19T23:57:43.722Z,14.93
